Terminal Aerodrome Forecast
Issued by NWS Boston, MA

Home | Current Version | Previous Version | Text Only | Print | Product List | Glossary On
Versions: 1 2 3 4 5 6 7 8 9 10 11 12 13 14 15 16 17 18 19 20 21 22 23 24 25 26 27 28 29 30 31 32 33 34 35 36 37 38 39 40
000
FTUS41 KBOX 210920 AAA
TAFBDL
TAF AMD
KBDL 210920Z 2109/2212 36005KT 4SM -SHSN BKN015
      TEMPO 2110/2112 2SM -SHSN OVC008
     FM211200 35005KT 2SM -SHSN OVC015
     FM211600 36004KT P6SM OVC015
     FM211800 VRB03KT P6SM OVC025
     FM212100 VRB03KT P6SM OVC020
     FM220600 00000KT P6SM BKN025=

USA.gov is the U.S. government's official web portal to all federal, state and local government web resources and services.